Time;durP1;ratioP1;P1;durP2;ratioP2;P2;SDS_P1;SDS_P2;PMS_P1;PMS_P2;Temp;Humidity;BMP_temperature;BMP_pressure;BME280_temperature;BME280_humidity;BME280_pressure;Samples;Min_cycle;Max_cycle;Signal;HPM_P1;HPM_P2
2023/07/11 00:01:37;;;;;;;14.73;13.53;;;;;;;18.71;74.16;93261.53;5068832;28;20264;-72
2023/07/11 00:04:03;;;;;;;13.63;12.20;;;;;;;18.70;74.68;93270.56;5069430;28;20186;-73
2023/07/11 00:06:28;;;;;;;13.60;12.60;;;;;;;18.40;74.70;93229.94;5067665;28;20219;-72
2023/07/11 00:08:54;;;;;;;13.37;12.37;;;;;;;18.71;73.98;93290.63;5068299;28;20210;-73
2023/07/11 00:11:20;;;;;;;13.83;12.57;;;;;;;18.75;73.61;93296.84;5054951;28;20245;-73
2023/07/11 00:13:46;;;;;;;13.80;12.70;;;;;;;18.74;75.47;93288.13;5061447;28;20219;-73
2023/07/11 00:16:14;;;;;;;13.80;12.80;;;;;;;18.65;77.31;93297.94;5062456;28;20456;-74
2023/07/11 00:18:40;;;;;;;13.10;12.10;;;;;;;18.62;77.08;93300.44;5068761;28;20207;-73
2023/07/11 00:21:05;;;;;;;13.23;12.23;;;;;;;18.49;77.46;93285.50;5078840;28;20235;-73
2023/07/11 00:23:31;;;;;;;13.20;12.20;;;;;;;18.57;78.23;93296.06;5067415;28;20197;-73
2023/07/11 00:25:56;;;;;;;13.87;12.67;;;;;;;18.37;79.04;93293.22;5052705;28;20395;-73
2023/07/11 00:28:22;;;;;;;13.77;12.67;;;;;;;18.44;78.72;93304.94;5078290;28;20203;-73
2023/07/11 00:30:49;;;;;;;13.87;12.70;;;;;;;18.24;78.63;93268.47;5067718;28;20215;-74
2023/07/11 00:33:15;;;;;;;14.13;12.83;;;;;;;18.29;79.02;93278.13;5069101;28;20178;-73
2023/07/11 00:35:44;;;;;;;12.73;11.67;;;;;;;18.38;78.73;93284.25;5069310;28;20221;-73
2023/07/11 00:38:09;;;;;;;14.77;13.47;;;;;;;18.12;78.92;93246.38;5069412;28;20238;-73
2023/07/11 00:40:43;;;;;;;14.03;12.97;;;;;;;18.16;80.03;93277.19;5069176;28;20222;-73
2023/07/11 00:43:13;;;;;;;13.03;12.13;;;;;;;18.15;82.04;93285.41;5069756;28;20213;-73
2023/07/11 00:46:12;;;;;;;13.80;12.90;;;;;;;18.14;82.07;93275.91;5080508;28;20230;-74
2023/07/11 00:48:40;;;;;;;13.20;12.20;;;;;;;18.28;80.88;93271.28;5069568;28;20251;-73
2023/07/11 00:51:08;;;;;;;13.00;11.93;;;;;;;18.22;81.35;93265.38;5051376;28;20232;-73
2023/07/11 00:53:37;;;;;;;12.33;11.43;;;;;;;18.18;81.34;93269.69;5069587;28;20212;-73
2023/07/11 00:56:05;;;;;;;14.77;13.57;;;;;;;18.25;81.25;93259.47;5068158;28;20235;-73
2023/07/11 00:58:32;;;;;;;13.03;11.93;;;;;;;18.19;81.83;93259.91;5069253;28;20210;-73
2023/07/11 01:00:59;;;;;;;13.67;12.67;;;;;;;18.18;82.13;93259.13;5068865;28;20241;-74
2023/07/11 01:03:25;;;;;;;13.83;12.73;;;;;;;18.18;82.33;93255.72;5069581;28;20270;-73
2023/07/11 01:05:55;;;;;;;14.57;13.27;;;;;;;18.23;82.13;93255.56;5069210;28;20222;-73
2023/07/11 01:08:20;;;;;;;15.10;14.00;;;;;;;18.16;81.60;93268.47;5068383;28;20251;-73
2023/07/11 01:10:46;;;;;;;13.80;12.80;;;;;;;18.13;81.92;93266.44;5068783;28;20211;-74
2023/07/11 01:13:11;;;;;;;14.40;13.03;;;;;;;18.12;82.36;93270.94;5068907;28;20231;-73
2023/07/11 01:15:37;;;;;;;14.97;13.67;;;;;;;18.10;82.76;93248.56;5067514;28;20246;-73
2023/07/11 01:18:02;;;;;;;13.90;12.60;;;;;;;18.24;82.68;93257.13;5068974;28;20245;-73
2023/07/11 01:20:28;;;;;;;13.97;12.87;;;;;;;18.19;82.71;93249.34;5050861;28;20223;-73
2023/07/11 01:22:55;;;;;;;12.90;11.73;;;;;;;18.23;82.53;93261.63;5068216;28;20198;-73
2023/07/11 01:25:22;;;;;;;14.07;12.83;;;;;;;18.23;83.12;93263.47;5071355;28;20916;-73
2023/07/11 01:27:49;;;;;;;13.80;12.60;;;;;;;18.21;82.79;93252.47;5072857;28;20191;-74
2023/07/11 01:30:18;;;;;;;14.67;13.43;;;;;;;18.19;83.21;93268.63;5072164;28;20231;-73
2023/07/11 01:32:44;;;;;;;13.80;12.80;;;;;;;18.12;83.92;93262.22;5062207;28;20208;-73
2023/07/11 01:35:10;;;;;;;13.20;12.30;;;;;;;18.01;83.61;93253.06;5072464;28;20242;-73
2023/07/11 01:37:36;;;;;;;14.97;13.77;;;;;;;18.03;83.51;93261.44;5071747;28;20226;-74
2023/07/11 01:40:01;;;;;;;15.10;13.30;;;;;;;18.06;83.11;93263.47;5070882;28;20222;-73
2023/07/11 01:42:27;;;;;;;13.20;12.17;;;;;;;17.97;83.16;93242.31;5072654;28;20185;-73
2023/07/11 01:44:53;;;;;;;14.33;12.93;;;;;;;18.24;83.70;93259.78;5071146;28;20229;-74
2023/07/11 01:47:18;;;;;;;14.73;13.60;;;;;;;17.96;85.67;93261.88;5072529;28;20197;-73
2023/07/11 01:49:44;;;;;;;13.93;12.77;;;;;;;17.87;86.64;93258.44;5072090;28;20233;-72
2023/07/11 01:52:18;;;;;;;14.93;13.63;;;;;;;17.86;86.83;93261.38;5071722;28;20186;-76
2023/07/11 01:54:44;;;;;;;15.10;13.90;;;;;;;18.04;86.25;93255.06;5071759;28;20214;-74
2023/07/11 01:57:10;;;;;;;13.90;12.63;;;;;;;18.07;85.54;93247.28;5072286;28;20262;-74
2023/07/11 01:59:36;;;;;;;13.33;12.23;;;;;;;18.07;85.99;93242.00;5071740;28;20238;-72
2023/07/11 02:02:03;;;;;;;14.60;13.23;;;;;;;17.90;86.25;93233.28;5087921;28;20200;-73
2023/07/11 02:04:29;;;;;;;13.07;12.17;;;;;;;17.87;86.82;93241.84;5072051;28;20192;-73
2023/07/11 02:06:55;;;;;;;14.57;13.27;;;;;;;17.85;86.72;93233.44;5071547;28;20257;-73
2023/07/11 02:09:21;;;;;;;14.07;12.97;;;;;;;17.88;86.33;93241.53;5071770;28;20216;-73
2023/07/11 02:11:48;;;;;;;14.07;12.70;;;;;;;17.68;87.07;93241.31;5071534;28;20954;-74
2023/07/11 02:14:18;;;;;;;14.17;13.17;;;;;;;17.78;87.53;93239.16;5067352;28;20205;-74
2023/07/11 02:16:44;;;;;;;14.30;12.93;;;;;;;17.70;87.81;93239.13;5071979;28;20209;-73
2023/07/11 02:19:14;;;;;;;14.70;13.40;;;;;;;17.54;88.00;93228.97;5071699;28;20209;-73
2023/07/11 02:21:40;;;;;;;13.80;12.70;;;;;;;17.72;88.25;93250.16;5073162;28;20233;-73
2023/07/11 02:24:10;;;;;;;14.63;13.37;;;;;;;17.72;87.41;93256.22;5071723;28;20186;-73
2023/07/11 02:26:36;;;;;;;13.77;12.67;;;;;;;17.55;88.14;93245.59;5069597;28;20287;-73
2023/07/11 02:29:03;;;;;;;13.40;12.53;;;;;;;17.70;87.53;93268.19;5071956;28;20197;-73
2023/07/11 02:31:30;;;;;;;14.03;13.03;;;;;;;17.57;88.38;93262.69;5071036;28;20211;-73
2023/07/11 02:33:56;;;;;;;14.17;13.13;;;;;;;17.69;88.03;93258.69;5072087;28;20197;-73
2023/07/11 02:36:21;;;;;;;13.37;12.33;;;;;;;17.74;87.72;93263.84;5086463;28;20234;-74
2023/07/11 02:38:46;;;;;;;14.53;13.37;;;;;;;17.72;87.81;93263.38;5071520;28;20216;-73
2023/07/11 02:41:12;;;;;;;13.50;12.33;;;;;;;17.67;87.18;93252.94;5064769;28;20214;-73
2023/07/11 02:43:37;;;;;;;15.07;13.87;;;;;;;17.61;87.67;93254.94;5071572;28;20306;-73
2023/07/11 02:46:03;;;;;;;13.77;12.57;;;;;;;17.33;89.32;93232.44;5071108;28;20222;-73
2023/07/11 02:48:29;;;;;;;13.40;12.40;;;;;;;17.48;89.31;93253.19;5071328;28;20186;-73
2023/07/11 02:50:54;;;;;;;13.33;12.23;;;;;;;17.53;88.70;93243.28;5070987;28;20225;-73
2023/07/11 02:53:20;;;;;;;14.10;13.07;;;;;;;17.57;89.03;93244.22;5070896;28;20181;-73
2023/07/11 02:55:45;;;;;;;15.07;13.63;;;;;;;17.37;89.98;93242.09;5069503;28;20263;-73
2023/07/11 02:58:10;;;;;;;13.33;12.33;;;;;;;17.17;91.11;93241.81;5070944;28;20243;-73
2023/07/11 03:00:36;;;;;;;15.73;14.00;;;;;;;17.31;90.38;93235.38;5070993;28;20226;-73
2023/07/11 03:03:02;;;;;;;13.00;12.10;;;;;;;17.51;89.27;93237.50;5086827;28;20208;-73
2023/07/11 03:05:27;;;;;;;13.23;12.10;;;;;;;17.38;89.17;93214.63;5069754;28;20222;-73
2023/07/11 03:07:53;;;;;;;13.70;12.40;;;;;;;17.50;90.16;93237.81;5070851;28;20211;-73
2023/07/11 03:10:18;;;;;;;14.20;13.20;;;;;;;17.18;89.97;93204.56;5070715;28;20228;-76
2023/07/11 03:12:44;;;;;;;13.73;12.43;;;;;;;17.56;89.64;93242.66;5070567;28;20226;-76
2023/07/11 03:15:09;;;;;;;13.63;12.60;;;;;;;17.54;90.02;93239.53;5070630;28;20241;-75
2023/07/11 03:17:35;;;;;;;14.17;12.97;;;;;;;17.42;90.08;93233.25;5070134;28;20232;-76
2023/07/11 03:20:00;;;;;;;14.80;13.40;;;;;;;17.61;90.02;93252.31;5051536;28;20231;-76
2023/07/11 03:22:27;;;;;;;13.80;12.50;;;;;;;17.73;89.80;93257.03;5056194;28;20189;-75
2023/07/11 03:24:53;;;;;;;13.43;12.33;;;;;;;17.75;89.20;93233.69;5070369;28;20272;-76
2023/07/11 03:27:18;;;;;;;14.97;13.63;;;;;;;17.64;88.99;93233.22;5073718;28;20186;-75
2023/07/11 03:29:43;;;;;;;14.27;12.97;;;;;;;17.68;89.08;93222.81;5070199;28;20231;-76
2023/07/11 03:32:10;;;;;;;13.40;12.40;;;;;;;18.03;88.63;93250.88;5070552;28;20194;-75
2023/07/11 03:34:35;;;;;;;14.37;13.33;;;;;;;18.01;88.67;93261.75;5066187;28;20242;-76
2023/07/11 03:37:01;;;;;;;14.70;13.37;;;;;;;18.22;86.14;93262.72;5065271;28;20200;-76
2023/07/11 03:39:26;;;;;;;13.70;12.60;;;;;;;18.33;87.18;93274.56;5069836;28;20206;-76
2023/07/11 03:41:51;;;;;;;13.87;12.63;;;;;;;18.40;86.97;93279.41;5069267;28;20241;-76
2023/07/11 03:44:17;;;;;;;15.17;14.00;;;;;;;18.56;86.28;93277.88;5070070;28;20205;-76
2023/07/11 03:46:43;;;;;;;15.77;14.03;;;;;;;18.36;86.12;93250.16;5069100;28;20189;-76
2023/07/11 03:49:09;;;;;;;13.57;12.50;;;;;;;18.58;85.75;93251.91;5070564;28;20198;-76
2023/07/11 03:51:34;;;;;;;14.00;12.70;;;;;;;18.75;84.42;93231.50;5056170;28;20236;-76
2023/07/11 03:54:00;;;;;;;14.83;13.57;;;;;;;18.51;86.30;93246.28;5051288;28;20196;-76
2023/07/11 03:56:27;;;;;;;15.87;14.40;;;;;;;18.93;84.13;93243.63;5069590;28;20223;-76
2023/07/11 03:58:52;;;;;;;13.57;12.50;;;;;;;19.00;84.30;93249.19;5070273;28;20203;-76
2023/07/11 04:01:18;;;;;;;16.00;14.40;;;;;;;19.25;83.74;93254.75;5069427;28;20287;-76
2023/07/11 04:03:44;;;;;;;14.70;13.50;;;;;;;19.49;81.39;93255.81;5069881;28;20203;-75
2023/07/11 04:06:09;;;;;;;15.53;14.20;;;;;;;19.62;79.51;93254.81;5057200;28;20318;-76
2023/07/11 04:08:34;;;;;;;17.33;15.57;;;;;;;19.21;83.08;93259.16;5051335;28;20190;-76
2023/07/11 04:11:00;;;;;;;15.47;14.03;;;;;;;19.34;81.60;93242.28;5065168;28;20227;-76
2023/07/11 04:13:26;;;;;;;16.20;14.73;;;;;;;19.20;83.12;93247.75;5069432;28;20224;-76
2023/07/11 04:15:51;;;;;;;16.07;14.73;;;;;;;18.86;84.59;93242.53;5068397;28;20222;-76
2023/07/11 04:18:17;;;;;;;16.20;14.57;;;;;;;19.24;83.95;93255.88;5069433;28;20226;-76
2023/07/11 04:20:42;;;;;;;16.30;14.13;;;;;;;19.58;82.28;93248.59;5065249;28;20215;-76
2023/07/11 04:23:08;;;;;;;20.13;13.60;;;;;;;19.82;82.06;93266.56;5069566;28;20188;-74
2023/07/11 04:25:33;;;;;;;15.70;14.30;;;;;;;19.92;83.01;93280.25;5069521;28;20238;-74
2023/07/11 04:27:58;;;;;;;16.33;14.63;;;;;;;20.21;79.02;93272.34;5072872;28;20183;-74
2023/07/11 04:30:24;;;;;;;17.60;15.93;;;;;;;20.14;80.05;93290.63;5066966;28;20245;-75
2023/07/11 04:32:51;;;;;;;16.27;14.80;;;;;;;20.17;80.21;93292.63;5065958;28;20235;-73
2023/07/11 04:35:17;;;;;;;24.98;16.70;;;;;;;19.75;81.43;93295.47;5067434;28;20223;-79
2023/07/11 04:37:42;;;;;;;17.60;15.87;;;;;;;20.08;79.59;93283.13;5066091;28;20239;-72
2023/07/11 04:40:10;;;;;;;18.10;16.30;;;;;;;20.20;78.68;93301.84;5066354;28;20325;-72
2023/07/11 04:42:35;;;;;;;17.90;15.75;;;;;;;20.60;76.69;93303.78;5068207;28;20208;-72
2023/07/11 04:45:00;;;;;;;16.60;15.20;;;;;;;20.50;77.63;93306.00;5067677;28;20240;-72
2023/07/11 04:47:27;;;;;;;18.70;16.83;;;;;;;20.65;76.86;93298.25;5062230;28;20192;-72
2023/07/11 04:49:52;;;;;;;17.70;15.95;;;;;;;20.97;74.51;93293.34;5066065;28;20236;-72
2023/07/11 04:52:18;;;;;;;16.83;15.25;;;;;;;21.27;74.25;93313.41;5064649;28;20228;-76
2023/07/11 04:54:44;;;;;;;16.90;15.32;;;;;;;21.38;74.02;93309.22;5063027;28;20230;-70
2023/07/11 04:57:10;;;;;;;17.67;15.88;;;;;;;21.84;71.20;93306.25;5067675;28;20181;-70
2023/07/11 04:59:35;;;;;;;17.27;14.85;;;;;;;21.80;71.43;93311.47;5064929;28;20296;-68
2023/07/11 05:02:00;;;;;;;17.45;15.73;;;;;;;21.34;75.26;93308.34;5070051;28;20200;-69
2023/07/11 05:04:26;;;;;;;15.75;14.25;;;;;;;21.60;74.06;93306.97;5069448;28;20933;-71
2023/07/11 05:06:51;;;;;;;20.23;17.03;;;;;;;21.84;71.88;93300.94;5069919;28;20200;-72
2023/07/11 05:09:17;;;;;;;16.52;14.75;;;;;;;21.62;74.85;93311.97;5070972;28;20241;-71
2023/07/11 05:11:43;;;;;;;22.90;15.23;;;;;;;21.06;75.68;93312.66;5063537;28;21170;-70
2023/07/11 05:14:09;;;;;;;17.00;15.50;;;;;;;21.82;73.19;93313.81;5071381;28;20234;-70
2023/07/11 05:16:34;;;;;;;18.00;15.57;;;;;;;21.58;73.85;93309.19;5070183;28;20248;-70
2023/07/11 05:18:59;;;;;;;19.50;16.60;;;;;;;21.67;74.24;93312.53;5071156;28;20443;-72
2023/07/11 05:21:27;;;;;;;20.88;16.40;;;;;;;21.70;73.09;93311.06;5055955;28;20297;-72
2023/07/11 05:23:55;;;;;;;22.52;15.73;;;;;;;22.07;71.78;93316.16;5041516;28;20210;-71
2023/07/11 05:26:20;;;;;;;17.02;15.52;;;;;;;21.64;73.34;93323.81;5051208;28;20221;-72
2023/07/11 05:28:46;;;;;;;17.80;15.98;;;;;;;21.95;71.97;93326.00;5043811;28;20189;-73
2023/07/11 05:31:11;;;;;;;19.13;17.33;;;;;;;22.29;70.02;93309.59;5042703;28;20222;-73
2023/07/11 05:33:37;;;;;;;18.15;16.33;;;;;;;22.08;71.60;93314.28;5050116;28;20192;-74
2023/07/11 05:36:33;;;;;;;18.00;16.23;;;;;;;22.56;68.73;93319.59;5043380;28;20226;-73
2023/07/11 05:39:06;;;;;;;19.95;15.82;;;;;;;23.03;67.69;93320.63;5032868;28;20216;-72
2023/07/11 05:41:33;;;;;;;16.75;14.95;;;;;;;24.83;60.74;93326.78;5051143;28;20229;-72
2023/07/11 05:43:58;;;;;;;19.42;16.30;;;;;;;26.26;54.78;93321.91;5044823;28;20201;-70
2023/07/11 05:46:25;;;;;;;16.50;14.90;;;;;;;26.93;52.84;93323.72;5051065;28;20234;-71
2023/07/11 05:48:52;;;;;;;17.52;14.27;;;;;;;28.87;47.28;93337.31;5046458;28;20193;-74
2023/07/11 05:51:18;;;;;;;16.55;14.75;;;;;;;30.37;42.73;93334.50;5050777;28;20222;-73
2023/07/11 05:53:45;;;;;;;15.32;13.93;;;;;;;30.60;43.26;93353.00;5033211;28;20259;-72
2023/07/11 05:56:10;;;;;;;15.30;13.80;;;;;;;32.21;38.77;93349.13;5041892;28;21170;-72
2023/07/11 05:58:36;;;;;;;15.05;13.52;;;;;;;33.18;36.24;93348.78;5047283;28;20213;-72
2023/07/11 06:01:03;;;;;;;16.50;14.73;;;;;;;33.56;35.00;93353.06;5049759;28;20241;-73
2023/07/11 06:03:29;;;;;;;16.17;14.68;;;;;;;34.70;32.43;93354.66;5048306;28;20178;-73
2023/07/11 06:06:03;;;;;;;15.55;13.82;;;;;;;35.47;31.87;93361.50;5049728;28;20240;-74
2023/07/11 06:08:32;;;;;;;19.48;13.57;;;;;;;33.56;34.85;93345.69;5037980;28;20196;-69
2023/07/11 06:11:00;;;;;;;14.90;13.10;;;;;;;34.95;31.82;93355.06;5053961;28;20222;-74
2023/07/11 06:13:27;;;;;;;15.52;13.02;;;;;;;36.62;28.90;93352.19;5050293;28;20240;-77
2023/07/11 06:16:01;;;;;;;17.85;12.50;;;;;;;35.09;31.69;93346.66;5050555;28;20210;-78
2023/07/11 06:18:26;;;;;;;13.20;12.00;;;;;;;36.75;29.27;93365.88;5051302;28;20237;-78
2023/07/11 06:20:52;;;;;;;15.38;12.15;;;;;;;37.24;28.66;93364.72;5058997;28;20226;-77
2023/07/11 06:23:18;;;;;;;17.50;11.90;;;;;;;33.72;32.98;93354.03;5051946;28;20187;-78
2023/07/11 06:25:43;;;;;;;14.75;11.55;;;;;;;36.72;28.64;93361.28;5050106;28;20232;-76
2023/07/11 06:28:09;;;;;;;14.75;13.15;;;;;;;36.41;28.78;93354.59;5048914;28;20190;-77
2023/07/11 06:30:34;;;;;;;17.50;12.25;;;;;;;34.85;31.22;93361.38;5050834;28;20222;-78
2023/07/11 06:32:59;;;;;;;13.38;12.25;;;;;;;35.75;30.17;93364.88;5050676;28;20186;-77
2023/07/11 06:35:25;;;;;;;17.10;14.10;;;;;;;34.75;32.42;93356.13;5050156;28;20322;-78
2023/07/11 06:37:50;;;;;;;17.83;13.23;;;;;;;36.08;30.55;93361.16;5050832;28;20261;-77
2023/07/11 06:40:16;;;;;;;19.35;13.40;;;;;;;37.50;28.58;93354.72;5050264;28;20221;-78
2023/07/11 06:42:41;;;;;;;13.15;11.98;;;;;;;36.76;28.63;93357.31;5051266;28;20229;-77
2023/07/11 06:45:07;;;;;;;14.18;12.57;;;;;;;35.77;30.60;93351.66;5050249;28;20245;-79
2023/07/11 06:47:33;;;;;;;16.58;12.52;;;;;;;37.46;28.52;93351.31;5051671;28;20256;-77
2023/07/11 06:49:58;;;;;;;13.98;12.50;;;;;;;37.37;27.88;93345.72;5052414;28;20238;-77
2023/07/11 06:52:24;;;;;;;14.00;12.80;;;;;;;34.40;34.42;93351.25;5061080;28;20732;-78
2023/07/11 06:54:50;;;;;;;20.73;13.15;;;;;;;31.39;39.26;93333.66;5051301;28;20226;-78
2023/07/11 06:57:17;;;;;;;15.35;13.75;;;;;;;29.34;43.59;93323.78;5051548;28;20181;-78
2023/07/11 06:59:42;;;;;;;16.25;14.52;;;;;;;27.94;48.50;93323.44;5050266;28;20242;-78
2023/07/11 07:02:09;;;;;;;21.17;14.48;;;;;;;27.51;50.25;93321.44;5050877;28;20236;-77
2023/07/11 07:04:34;;;;;;;18.77;15.35;;;;;;;27.81;48.98;93324.84;5051168;28;20291;-78
2023/07/11 07:07:00;;;;;;;27.20;16.42;;;;;;;26.65;52.38;93334.81;5051359;28;20182;-77
2023/07/11 07:09:25;;;;;;;17.90;15.85;;;;;;;26.06;54.49;93310.50;5050280;28;20193;-77
2023/07/11 07:11:51;;;;;;;21.73;16.17;;;;;;;25.69;58.31;93309.44;5058770;28;20237;-74
2023/07/11 07:14:18;;;;;;;29.73;16.33;;;;;;;26.03;57.68;93297.84;5050848;28;20189;-78
2023/07/11 07:16:44;;;;;;;26.23;15.60;;;;;;;26.48;55.31;93324.59;5051248;28;20198;-75
2023/07/11 07:19:11;;;;;;;17.50;15.75;;;;;;;26.18;56.00;93326.38;5050113;28;20210;-78
2023/07/11 07:21:36;;;;;;;17.33;15.60;;;;;;;25.65;58.29;93323.88;5064673;28;20218;-77
2023/07/11 07:24:02;;;;;;;17.52;15.70;;;;;;;25.94;57.98;93313.34;5058304;28;20178;-77
2023/07/11 07:26:28;;;;;;;18.25;15.02;;;;;;;26.19;56.43;93319.91;5050583;28;20226;-78
2023/07/11 07:28:53;;;;;;;17.75;14.93;;;;;;;26.17;57.63;93319.50;5050872;28;20182;-77
2023/07/11 07:31:19;;;;;;;17.85;15.88;;;;;;;27.01;55.04;93319.22;5050201;28;20249;-78
2023/07/11 07:33:44;;;;;;;16.65;15.20;;;;;;;26.66;56.34;93314.91;5046512;28;20257;-77
2023/07/11 07:36:12;;;;;;;16.88;15.32;;;;;;;27.12;55.11;93320.16;5050866;28;20240;-78
2023/07/11 07:38:39;;;;;;;16.10;14.52;;;;;;;27.12;54.87;93304.84;5050447;28;20202;-78
2023/07/11 07:41:06;;;;;;;16.75;15.13;;;;;;;27.35;55.14;93307.47;5050118;28;20218;-78
2023/07/11 07:43:32;;;;;;;23.63;15.18;;;;;;;27.15;54.19;93314.06;5050370;28;20213;-75
2023/07/11 07:46:02;;;;;;;17.95;16.05;;;;;;;27.07;55.37;93307.84;5049176;28;20217;-78
2023/07/11 07:48:27;;;;;;;18.30;16.27;;;;;;;26.87;54.94;93305.63;5049832;28;20186;-78
2023/07/11 07:51:02;;;;;;;17.13;15.43;;;;;;;26.68;55.05;93299.25;5050322;28;20245;-77
2023/07/11 07:53:28;;;;;;;19.58;16.52;;;;;;;26.19;57.75;93301.16;5049378;28;20188;-78
2023/07/11 07:55:53;;;;;;;19.45;16.42;;;;;;;26.60;55.54;93305.63;5050223;28;20233;-77
2023/07/11 07:58:18;;;;;;;17.13;15.55;;;;;;;26.46;56.89;93310.78;5049666;28;20214;-78
2023/07/11 08:00:44;;;;;;;17.95;16.20;;;;;;;26.38;56.66;93314.47;5050051;28;20222;-78
2023/07/11 08:03:09;;;;;;;17.50;15.35;;;;;;;26.63;57.92;93304.94;5050031;28;20190;-77
2023/07/11 08:05:36;;;;;;;17.10;15.35;;;;;;;27.06;55.28;93306.28;5050532;28;20268;-78
2023/07/11 08:08:02;;;;;;;16.70;15.00;;;;;;;27.07;54.05;93301.72;5047690;28;20269;-77
2023/07/11 08:10:28;;;;;;;16.63;15.10;;;;;;;26.87;55.09;93313.69;5048913;28;20234;-78
2023/07/11 08:12:53;;;;;;;16.75;15.13;;;;;;;26.86;53.66;93309.47;5049495;28;20222;-78
2023/07/11 08:15:19;;;;;;;15.55;13.95;;;;;;;26.54;55.43;93317.00;5048839;28;20289;-77
2023/07/11 08:17:46;;;;;;;42.45;15.98;;;;;;;27.01;55.84;93303.16;5050194;28;20273;-78
2023/07/11 08:20:11;;;;;;;17.23;15.40;;;;;;;27.11;54.75;93306.00;5053805;28;20228;-78
2023/07/11 08:22:37;;;;;;;17.98;13.30;;;;;;;26.96;55.32;93301.56;5051238;28;20186;-78
2023/07/11 08:25:02;;;;;;;18.55;13.63;;;;;;;26.95;56.98;93301.91;5057019;28;20230;-75
2023/07/11 08:27:28;;;;;;;14.35;12.40;;;;;;;27.18;52.41;93303.38;5049435;28;20179;-80
2023/07/11 08:29:53;;;;;;;15.63;12.27;;;;;;;27.25;52.82;93308.84;5049596;28;20245;-80
2023/07/11 08:32:19;;;;;;;30.77;13.40;;;;;;;27.28;53.18;93292.06;5049201;28;20231;-80
2023/07/11 08:34:44;;;;;;;16.40;12.93;;;;;;;27.54;48.76;93300.00;5049565;28;20241;-79
2023/07/11 08:37:10;;;;;;;19.58;12.82;;;;;;;27.24;51.10;93306.53;5048747;28;20190;-79
2023/07/11 08:39:37;;;;;;;13.52;12.30;;;;;;;27.17;49.75;93296.47;5048353;28;20244;-80
2023/07/11 08:42:12;;;;;;;12.48;11.27;;;;;;;27.33;49.84;93288.28;5049340;28;20190;-79
2023/07/11 08:44:45;;;;;;;13.00;12.00;;;;;;;27.41;46.33;93298.69;5049125;28;20229;-79
2023/07/11 08:47:24;;;;;;;11.75;10.75;;;;;;;27.52;45.37;93290.78;5049085;28;20217;-77
2023/07/11 08:50:02;;;;;;;12.07;11.18;;;;;;;27.19;45.27;93288.81;5048999;28;20255;-80
2023/07/11 08:52:29;;;;;;;11.40;10.50;;;;;;;27.60;45.37;93297.75;5049488;28;20197;-80
2023/07/11 08:54:59;;;;;;;12.38;10.77;;;;;;;27.75;45.88;93294.09;5045308;28;20234;-79
2023/07/11 08:57:29;;;;;;;12.27;11.13;;;;;;;27.58;46.26;93300.06;5049299;28;20278;-80
2023/07/11 09:00:10;;;;;;;11.65;10.55;;;;;;;27.70;45.13;93297.13;5049330;28;20266;-80
2023/07/11 09:03:13;;;;;;;11.20;10.25;;;;;;;27.69;45.32;93300.94;5049019;28;20267;-83
2023/07/11 09:05:57;;;;;;;12.68;11.50;;;;;;;27.78;45.60;93304.09;5004429;28;20252;-80
2023/07/11 09:08:22;;;;;;;12.82;11.68;;;;;;;27.66;45.41;93285.59;5005029;28;20207;-79
2023/07/11 09:10:53;;;;;;;12.38;11.20;;;;;;;27.84;44.40;93289.19;5028717;28;20237;-80
2023/07/11 09:13:31;;;;;;;16.38;11.13;;;;;;;28.15;43.20;93286.06;5041627;28;20236;-78
2023/07/11 09:16:30;;;;;;;11.52;10.07;;;;;;;27.74;43.63;93287.94;5047328;28;20228;-80
2023/07/11 09:19:10;;;;;;;12.23;11.02;;;;;;;28.03;45.41;93284.41;5047968;28;20217;-80
2023/07/11 09:21:57;;;;;;;11.90;10.77;;;;;;;28.20;43.46;93291.09;5051411;28;20225;-79
2023/07/11 09:25:00;;;;;;;12.57;11.43;;;;;;;27.91;44.00;93292.75;5056333;28;20179;-79
2023/07/11 09:27:34;;;;;;;11.80;10.88;;;;;;;27.58;43.76;93289.31;5076079;28;20178;-79
2023/07/11 09:30:05;;;;;;;12.73;11.50;;;;;;;27.70;44.84;93291.75;5048069;28;20226;-79
2023/07/11 09:32:34;;;;;;;11.75;10.60;;;;;;;27.93;45.29;93285.13;5048901;28;20202;-79
2023/07/11 09:35:22;;;;;;;11.32;10.30;;;;;;;28.14;45.04;93287.22;5049291;28;20238;-79
2023/07/11 09:37:53;;;;;;;13.07;11.35;;;;;;;27.89;45.86;93283.53;5048407;28;20242;-79
2023/07/11 09:40:37;;;;;;;13.30;11.43;;;;;;;27.93;47.46;93293.16;5048191;28;20216;-78
2023/07/11 09:43:04;;;;;;;14.30;11.52;;;;;;;28.40;44.21;93289.72;5049176;28;20193;-78
2023/07/11 09:45:36;;;;;;;12.18;11.10;;;;;;;28.58;43.42;93282.59;5050048;28;20871;-80
2023/07/11 09:48:07;;;;;;;12.93;11.73;;;;;;;28.50;44.24;93286.34;5052770;28;20195;-80
2023/07/11 09:51:07;;;;;;;12.82;11.43;;;;;;;28.09;44.84;93287.56;5050327;28;20222;-80
2023/07/11 09:53:32;;;;;;;11.95;10.88;;;;;;;28.05;44.29;93287.50;5052396;28;20182;-78
2023/07/11 09:56:03;;;;;;;11.30;10.38;;;;;;;28.28;44.39;93282.72;5052174;28;20252;-80
2023/07/11 09:58:32;;;;;;;13.02;11.82;;;;;;;28.03;42.43;93284.41;5051019;28;20225;-80
2023/07/11 10:01:00;;;;;;;15.00;11.23;;;;;;;27.92;44.47;93274.75;5052350;28;20290;-80
2023/07/11 10:03:27;;;;;;;12.85;11.60;;;;;;;28.26;44.68;93278.88;5039473;28;20180;-77
2023/07/11 10:05:53;;;;;;;13.73;12.05;;;;;;;28.19;44.62;93270.75;5051911;28;20252;-79
2023/07/11 10:08:43;;;;;;;12.85;11.65;;;;;;;28.33;44.83;93289.66;5052488;28;20194;-79
2023/07/11 10:11:12;;;;;;;17.60;12.40;;;;;;;28.35;45.37;93276.63;5051654;28;20225;-78
2023/07/11 10:13:40;;;;;;;11.98;11.02;;;;;;;28.52;44.14;93273.34;5052214;28;20230;-77
2023/07/11 10:16:05;;;;;;;12.25;11.25;;;;;;;28.05;46.12;93276.78;5055584;28;20330;-77
2023/07/11 10:18:34;;;;;;;12.55;11.38;;;;;;;28.40;44.47;93259.41;5061342;28;20212;-76
2023/07/11 10:21:11;;;;;;;13.45;12.00;;;;;;;28.11;44.69;93263.78;5056066;28;20256;-77
2023/07/11 10:23:37;;;;;;;16.20;12.05;;;;;;;27.90;46.51;93259.00;5059538;28;20211;-78
2023/07/11 10:26:20;;;;;;;12.40;11.27;;;;;;;28.19;46.17;93265.38;5052165;28;20222;-79
2023/07/11 10:28:55;;;;;;;13.13;11.77;;;;;;;28.43;45.32;93269.38;5051923;28;20190;-80
2023/07/11 10:31:27;;;;;;;13.52;12.32;;;;;;;28.47;46.28;93243.34;5051533;28;20243;-80
2023/07/11 10:33:57;;;;;;;16.55;11.38;;;;;;;28.24;44.93;93268.50;5051723;28;20193;-80
2023/07/11 10:36:37;;;;;;;12.48;11.57;;;;;;;28.31;47.19;93267.78;5051186;28;20232;-80
2023/07/11 10:39:15;;;;;;;14.93;11.00;;;;;;;28.27;46.30;93264.28;5051397;28;20236;-80
2023/07/11 10:42:26;;;;;;;12.57;11.55;;;;;;;28.07;46.82;93246.88;5050247;28;20217;-79
2023/07/11 10:45:02;;;;;;;12.43;11.52;;;;;;;28.46;46.15;93263.28;5005099;28;20221;-81
2023/07/11 10:47:33;;;;;;;11.98;11.07;;;;;;;28.38;46.65;93262.44;5061310;28;20205;-79
2023/07/11 10:50:06;;;;;;;11.13;10.23;;;;;;;28.29;47.94;93253.94;5067522;28;20647;-79
2023/07/11 10:52:35;;;;;;;12.63;11.32;;;;;;;28.47;47.02;93254.88;5070383;28;20190;-80
2023/07/11 10:55:27;;;;;;;12.43;11.45;;;;;;;28.64;47.20;93256.16;5070670;28;20220;-79
2023/07/11 10:57:53;;;;;;;12.27;11.18;;;;;;;28.64;46.71;93256.91;5071067;28;20213;-79
2023/07/11 11:00:46;;;;;;;12.23;11.20;;;;;;;28.56;46.87;93247.28;5070929;28;20225;-77
2023/07/11 11:03:27;;;;;;;11.85;10.77;;;;;;;28.59;44.73;93246.53;5070894;28;20212;-82
2023/07/11 11:06:06;;;;;;;13.48;11.93;;;;;;;28.82;45.87;93243.56;5071000;28;20223;-79
2023/07/11 11:08:46;;;;;;;12.40;11.15;;;;;;;28.83;45.03;93245.88;5062290;28;20199;-79
2023/07/11 11:11:52;;;;;;;11.85;10.75;;;;;;;28.74;46.48;93250.03;5067608;28;20291;-77
2023/07/11 11:14:31;;;;;;;11.90;10.75;;;;;;;28.57;45.18;93250.72;5069403;28;20202;-76
2023/07/11 11:17:08;;;;;;;12.63;11.63;;;;;;;28.48;45.84;93240.31;5060939;28;20190;-79
2023/07/11 11:19:46;;;;;;;11.27;10.45;;;;;;;28.79;45.58;93234.34;5056064;28;20212;-78
2023/07/11 11:22:34;;;;;;;12.00;10.95;;;;;;;28.67;45.88;93247.31;5065658;28;20176;-78
2023/07/11 11:25:01;;;;;;;12.05;10.95;;;;;;;28.75;47.28;93241.59;5054999;28;20239;-78